Time;durP1;ratioP1;P1;durP2;ratioP2;P2;SDS_P1;SDS_P2;PMS_P1;PMS_P2;Temp;Humidity;BMP_temperature;BMP_pressure;BME280_temperature;BME280_humidity;BME280_pressure;Samples;Min_cycle;Max_cycle;Signal;HPM_P1;HPM_P2
2022/11/12 00:00:35;;;;;;;27.60;18.90;;;11.00;99.90;;;11.07;65.66;96311.28;5006155;28;20493;-54
2022/11/12 00:03:03;;;;;;;34.33;18.70;;;11.00;99.90;;;11.04;65.81;96314.16;5006732;28;20839;-55
2022/11/12 00:05:31;;;;;;;30.53;18.33;;;11.00;99.90;;;11.00;65.86;96297.72;5006298;28;20477;-55
2022/11/12 00:07:59;;;;;;;27.33;17.63;;;10.90;99.90;;;10.98;65.87;96301.41;5006369;28;20457;-57
2022/11/12 00:10:26;;;;;;;27.20;17.40;;;10.90;99.90;;;10.93;66.23;96293.84;5004927;28;20486;-57
2022/11/12 00:12:54;;;;;;;27.70;17.73;;;10.90;99.90;;;10.92;66.30;96286.88;5006831;28;20464;-56
2022/11/12 00:15:21;;;;;;;28.20;17.80;;;10.90;99.90;;;10.92;66.23;96289.50;5005538;28;20481;-56
2022/11/12 00:17:48;;;;;;;35.73;20.97;;;10.80;99.90;;;10.89;66.18;96280.06;5002440;28;20453;-56
2022/11/12 00:20:16;;;;;;;37.57;19.60;;;10.80;99.90;;;10.89;66.50;96287.09;5001849;28;20481;-55
2022/11/12 00:22:45;;;;;;;27.53;16.53;;;10.80;99.90;;;10.87;66.54;96291.63;4999085;28;20454;-55
2022/11/12 00:25:13;;;;;;;29.37;18.17;;;10.80;99.90;;;10.85;66.35;96283.00;5001746;28;20470;-57
2022/11/12 00:27:40;;;;;;;33.37;17.90;;;10.80;99.90;;;10.82;66.57;96294.56;5001717;28;20464;-57
2022/11/12 00:30:08;;;;;;;30.03;17.60;;;10.80;99.90;;;10.78;66.64;96295.72;5005579;28;20477;-56
2022/11/12 00:32:36;;;;;;;31.87;18.93;;;10.70;99.90;;;10.75;67.15;96301.19;5002929;28;20456;-54
2022/11/12 00:35:03;;;;;;;28.20;18.47;;;10.70;99.90;;;10.68;66.99;96306.03;4999139;28;20943;-56
2022/11/12 00:37:31;;;;;;;36.10;19.60;;;10.60;99.90;;;10.62;66.87;96303.84;4995293;28;20461;-57
2022/11/12 00:39:59;;;;;;;28.00;18.77;;;10.60;99.90;;;10.63;67.08;96304.66;4997182;28;21055;-57
2022/11/12 00:42:26;;;;;;;29.70;17.33;;;10.60;99.90;;;10.61;67.49;96298.69;4999390;28;20508;-56
2022/11/12 00:44:54;;;;;;;27.40;16.57;;;10.60;99.90;;;10.58;67.30;96294.47;4998422;28;21147;-56
2022/11/12 00:47:21;;;;;;;25.40;16.40;;;10.50;99.90;;;10.57;67.36;96296.25;4997398;28;20461;-57
2022/11/12 00:49:48;;;;;;;24.53;15.67;;;10.50;99.90;;;10.58;67.36;96302.34;4998381;28;20506;-56
2022/11/12 00:52:16;;;;;;;26.80;18.17;;;10.50;99.90;;;10.59;67.51;96293.53;5003427;28;20485;-57
2022/11/12 00:54:43;;;;;;;33.43;17.93;;;10.60;99.90;;;10.59;67.65;96291.72;4999374;28;20978;-56
2022/11/12 00:57:12;;;;;;;36.30;18.40;;;10.50;99.90;;;10.59;67.45;96291.72;5000131;28;20461;-55
2022/11/12 00:59:39;;;;;;;30.93;18.37;;;10.50;99.90;;;10.61;67.72;96275.00;4999868;28;20493;-54
2022/11/12 01:02:06;;;;;;;34.60;18.47;;;10.50;99.90;;;10.62;67.50;96269.63;5001856;28;20523;-56
2022/11/12 01:04:34;;;;;;;29.87;18.73;;;10.60;99.90;;;10.63;67.63;96260.81;4998348;28;20508;-55
2022/11/12 01:07:01;;;;;;;31.10;17.30;;;10.60;99.90;;;10.63;67.52;96270.47;4999804;28;20512;-56
2022/11/12 01:09:29;;;;;;;34.47;17.10;;;10.60;99.90;;;10.61;67.64;96283.72;4999986;28;20998;-57
2022/11/12 01:11:56;;;;;;;28.47;17.27;;;10.60;99.90;;;10.62;67.77;96279.31;4997085;28;20494;-57
2022/11/12 01:14:24;;;;;;;37.90;19.20;;;10.60;99.90;;;10.60;67.71;96282.06;4996577;28;20485;-55
2022/11/12 01:16:52;;;;;;;31.10;18.37;;;10.50;99.90;;;10.59;67.85;96275.94;4995708;28;20466;-57
2022/11/12 01:19:19;;;;;;;26.97;16.93;;;10.60;99.90;;;10.59;67.74;96267.22;4997683;28;20482;-56
2022/11/12 01:21:46;;;;;;;28.00;17.10;;;10.60;99.90;;;10.61;67.75;96273.19;4999918;28;20504;-55
2022/11/12 01:24:13;;;;;;;26.00;16.17;;;10.60;99.90;;;10.62;67.94;96269.63;4997710;28;20628;-55
2022/11/12 01:26:41;;;;;;;27.93;16.67;;;10.60;99.90;;;10.63;67.95;96267.84;4995312;28;20467;-57
2022/11/12 01:29:08;;;;;;;24.00;15.30;;;10.60;99.90;;;10.65;67.69;96274.69;4997259;28;20517;-56
2022/11/12 01:31:38;;;;;;;29.63;16.07;;;10.60;99.90;;;10.66;67.96;96273.75;5004126;28;20489;-57
2022/11/12 01:34:08;;;;;;;32.97;14.87;;;10.60;99.90;;;10.67;67.93;96267.50;4993994;28;20489;-56
2022/11/12 01:36:39;;;;;;;25.00;17.03;;;10.60;99.90;;;10.68;67.71;96263.13;5001497;28;20469;-55
2022/11/12 01:39:07;;;;;;;27.30;15.30;;;10.60;99.90;;;10.69;67.61;96264.78;5001756;28;20600;-56
2022/11/12 01:41:36;;;;;;;22.13;15.60;;;10.60;99.90;;;10.69;67.76;96255.13;5004439;28;21262;-58
2022/11/12 01:44:16;;;;;;;28.37;15.83;;;10.60;99.90;;;10.70;67.81;96246.25;4999373;28;20528;-57
2022/11/12 01:46:55;;;;;;;26.07;15.97;;;10.70;99.90;;;10.71;67.32;96255.84;5001373;28;20936;-56
2022/11/12 01:49:26;;;;;;;28.33;16.10;;;10.70;99.90;;;10.72;67.91;96249.63;4999473;28;20482;-56
2022/11/12 01:51:53;;;;;;;28.60;16.40;;;10.70;99.90;;;10.73;67.76;96248.66;4997451;28;20489;-57
2022/11/12 01:54:21;;;;;;;25.07;16.03;;;10.70;99.90;;;10.74;67.74;96253.00;4996846;28;20849;-57
2022/11/12 01:56:49;;;;;;;24.27;16.03;;;10.70;99.90;;;10.76;67.68;96247.63;5003605;28;21024;-57
2022/11/12 01:59:19;;;;;;;24.17;15.23;;;10.70;99.90;;;10.75;67.83;96244.16;5002709;28;20488;-56
2022/11/12 02:01:47;;;;;;;26.47;15.70;;;10.70;99.90;;;10.76;67.67;96237.94;4996524;28;20462;-56
2022/11/12 02:04:15;;;;;;;28.57;15.50;;;10.70;99.90;;;10.77;67.76;96242.25;4998834;28;20535;-55
2022/11/12 02:06:42;;;;;;;27.30;14.90;;;10.70;99.90;;;10.77;67.95;96251.94;5000033;28;20718;-55
2022/11/12 02:09:09;;;;;;;30.90;16.03;;;10.70;99.90;;;10.77;67.26;96252.78;4997654;28;20482;-56
2022/11/12 02:11:37;;;;;;;24.83;14.90;;;10.70;99.90;;;10.77;67.69;96251.94;4997109;28;20501;-54
2022/11/12 02:14:04;;;;;;;23.80;13.87;;;10.70;99.90;;;10.77;67.63;96244.88;5008655;28;20500;-55
2022/11/12 02:16:33;;;;;;;18.30;12.53;;;10.70;99.90;;;10.78;67.49;96253.63;5001303;28;20450;-56
2022/11/12 02:19:02;;;;;;;23.60;13.30;;;10.70;99.90;;;10.79;67.64;96257.94;4999293;28;20477;-56
2022/11/12 02:21:31;;;;;;;19.37;12.70;;;10.70;99.90;;;10.80;67.45;96257.00;5000946;28;20450;-55
2022/11/12 02:24:00;;;;;;;21.10;13.50;;;10.70;99.90;;;10.81;67.42;96249.94;5004698;28;20477;-56
2022/11/12 02:26:30;;;;;;;23.27;14.10;;;10.80;99.90;;;10.82;67.41;96257.72;5000948;28;20465;-57
2022/11/12 02:28:57;;;;;;;15.80;11.80;;;10.80;99.90;;;10.83;67.08;96266.44;5004336;28;20536;-56
2022/11/12 02:31:24;;;;;;;18.37;12.50;;;10.70;99.90;;;10.81;67.09;96248.13;5004581;28;20502;-56
2022/11/12 02:33:52;;;;;;;16.67;11.17;;;10.80;99.90;;;10.81;67.02;96255.19;4999853;28;20453;-54
2022/11/12 02:36:19;;;;;;;18.37;11.33;;;10.70;99.90;;;10.82;66.90;96246.38;5003241;28;20466;-54
2022/11/12 02:38:47;;;;;;;18.30;11.57;;;10.70;99.90;;;10.82;66.78;96249.81;5004859;28;20456;-57
2022/11/12 02:41:15;;;;;;;17.40;10.30;;;10.80;99.90;;;10.82;66.47;96239.31;5007981;28;20488;-57
2022/11/12 02:43:42;;;;;;;15.23;9.90;;;10.70;99.90;;;10.82;66.32;96241.94;5008058;28;20855;-56
2022/11/12 02:46:09;;;;;;;15.90;10.60;;;10.70;99.90;;;10.84;66.44;96244.47;5007593;28;20458;-57
2022/11/12 02:48:36;;;;;;;17.97;10.63;;;10.80;99.90;;;10.84;66.41;96240.03;5007559;28;20453;-56
2022/11/12 02:51:04;;;;;;;22.00;11.40;;;10.80;99.90;;;10.83;66.11;96250.66;5008036;28;20461;-56
2022/11/12 02:53:31;;;;;;;12.90;9.80;;;10.80;99.90;;;10.80;66.17;96250.88;5003974;28;20524;-57
2022/11/12 02:56:00;;;;;;;14.30;10.00;;;10.70;99.90;;;10.75;66.05;96252.06;5007116;28;20480;-57
2022/11/12 02:58:28;;;;;;;15.23;10.50;;;10.70;99.90;;;10.74;66.22;96255.63;5007645;28;20507;-56
2022/11/12 03:00:55;;;;;;;17.03;10.13;;;10.70;99.90;;;10.73;66.33;96253.94;5007796;28;20473;-56
2022/11/12 03:03:22;;;;;;;17.50;10.87;;;10.70;99.90;;;10.74;66.30;96244.28;5007738;28;21028;-56
2022/11/12 03:05:55;;;;;;;19.43;10.00;;;10.70;99.90;;;10.72;66.10;96254.91;5006693;28;20911;-55
2022/11/12 03:08:23;;;;;;;11.00;8.60;;;10.70;99.90;;;10.73;65.90;96253.94;5006143;28;20445;-56
2022/11/12 03:10:50;;;;;;;13.13;8.17;;;10.70;99.90;;;10.74;65.83;96246.91;4998903;28;20544;-55
2022/11/12 03:13:19;;;;;;;12.50;9.37;;;10.70;99.90;;;10.76;65.92;96245.81;5004968;28;20466;-56
2022/11/12 03:15:46;;;;;;;12.50;8.27;;;10.70;99.90;;;10.77;65.74;96247.53;4998699;28;20923;-56
2022/11/12 03:18:13;;;;;;;13.90;8.50;;;10.70;99.90;;;10.79;65.61;96252.69;4996420;28;20892;-54
2022/11/12 03:20:41;;;;;;;17.30;9.03;;;10.70;99.90;;;10.80;65.61;96250.88;4997673;28;20481;-57
2022/11/12 03:23:09;;;;;;;18.57;8.57;;;10.70;99.90;;;10.78;65.53;96253.63;5002757;28;20899;-55
2022/11/12 03:25:37;;;;;;;11.17;8.70;;;10.70;99.90;;;10.79;65.32;96254.47;5000941;28;20481;-56
2022/11/12 03:28:05;;;;;;;10.63;7.70;;;10.70;99.80;;;10.77;65.29;96252.78;5004014;28;20539;-58
2022/11/12 03:30:35;;;;;;;12.13;8.73;;;10.70;99.80;;;10.75;65.31;96246.78;4999288;28;20487;-54
2022/11/12 03:33:03;;;;;;;11.67;7.60;;;10.70;99.70;;;10.74;65.08;96255.63;5001537;28;20498;-56
2022/11/12 03:35:30;;;;;;;15.90;9.53;;;10.70;99.60;;;10.71;65.05;96252.38;5001338;28;20477;-56
2022/11/12 03:37:58;;;;;;;11.60;8.07;;;10.70;99.60;;;10.63;64.75;96252.91;4995089;28;20459;-57
2022/11/12 03:40:25;;;;;;;13.03;8.10;;;10.60;99.40;;;10.57;65.09;96251.53;5001351;28;20945;-54
2022/11/12 03:42:53;;;;;;;10.70;7.93;;;10.60;99.40;;;10.56;65.06;96251.63;5000938;28;20458;-56
2022/11/12 03:45:22;;;;;;;13.93;8.37;;;10.50;99.50;;;10.55;64.86;96257.84;5000887;28;21006;-60
2022/11/12 03:47:51;;;;;;;10.90;7.20;;;10.50;99.50;;;10.54;65.03;96259.63;5002730;28;20460;-55
2022/11/12 03:50:20;;;;;;;11.07;5.97;;;10.50;99.40;;;10.53;64.93;96259.75;5007130;28;20477;-57
2022/11/12 03:52:48;;;;;;;10.60;6.60;;;10.50;99.30;;;10.50;64.90;96255.56;5006921;28;20846;-54
2022/11/12 03:55:16;;;;;;;11.30;5.77;;;10.40;99.30;;;10.48;64.63;96254.78;5006190;28;20510;-57
2022/11/12 03:57:43;;;;;;;12.43;6.20;;;10.40;99.20;;;10.46;64.64;96250.59;5006569;28;20454;-57
2022/11/12 04:00:12;;;;;;;6.23;5.40;;;10.40;99.20;;;10.44;64.27;96255.97;5007520;28;20466;-56
2022/11/12 04:02:39;;;;;;;7.93;4.90;;;10.40;99.00;;;10.43;64.37;96256.06;5002688;28;20978;-55
2022/11/12 04:10:51;;;;;;;4.87;4.47;;;10.30;98.60;;;10.34;64.16;96250.47;4973594;28;20748;-54
2022/11/12 04:13:30;;;;;;;5.00;4.50;;;10.30;98.60;;;10.32;64.02;96252.34;4999489;28;20485;-54
2022/11/12 04:21:53;;;;;;;7.57;4.80;;;10.20;98.50;;;10.20;64.06;96240.03;4999642;28;20457;-56
2022/11/12 04:27:09;;;;;;;4.37;3.97;;;10.10;98.50;;;10.10;64.02;96236.31;5000382;28;20460;-57
2022/11/12 04:32:21;;;;;;;4.23;3.83;;;10.00;98.60;;;10.02;63.98;96234.19;4994387;28;21087;-56
2022/11/12 04:34:48;;;;;;;5.53;4.60;;;10.00;98.80;;;9.96;64.23;96238.09;4992052;28;20485;-55
2022/11/12 04:37:17;;;;;;;4.90;4.40;;;9.90;99.00;;;9.91;64.00;96237.53;4998982;28;20469;-57
2022/11/12 04:39:45;;;;;;;5.13;4.53;;;9.90;98.90;;;9.87;63.87;96241.34;5003103;28;21044;-56
2022/11/12 04:45:01;;;;;;;5.27;4.53;;;9.80;98.80;;;9.75;64.00;96242.16;5007096;28;20553;-55
2022/11/12 04:47:30;;;;;;;6.53;4.20;;;9.70;98.80;;;9.71;63.96;96236.22;5002502;28;20464;-55
2022/11/12 04:49:57;;;;;;;7.27;5.43;;;9.70;99.00;;;9.66;64.07;96236.53;5000909;28;21005;-57
2022/11/12 04:52:26;;;;;;;7.80;4.60;;;9.70;99.00;;;9.61;63.90;96243.03;4993801;28;20953;-57
2022/11/12 04:54:54;;;;;;;6.00;5.40;;;9.60;98.90;;;9.58;64.28;96244.09;4992750;28;20588;-56
2022/11/12 04:57:21;;;;;;;8.13;5.30;;;9.60;99.00;;;9.58;64.10;96243.25;5000209;28;20463;-57
2022/11/12 04:59:48;;;;;;;6.23;4.73;;;9.60;99.00;;;9.56;63.89;96243.34;4997598;28;20478;-56
2022/11/12 05:02:16;;;;;;;11.27;4.97;;;9.60;99.00;;;9.58;63.96;96240.63;4997041;28;20569;-57
2022/11/12 05:04:43;;;;;;;8.23;5.17;;;9.60;99.00;;;9.58;64.04;96238.00;4999296;28;21022;-57
2022/11/12 05:07:10;;;;;;;13.43;6.10;;;9.60;99.00;;;9.57;63.73;96238.94;4999696;28;20500;-58
2022/11/12 05:09:39;;;;;;;23.97;6.37;;;9.60;98.90;;;9.56;63.90;96243.34;5000383;28;20544;-56
2022/11/12 05:12:07;;;;;;;22.63;6.20;;;9.60;99.00;;;9.58;63.99;96246.69;4990168;28;20494;-56
2022/11/12 05:14:34;;;;;;;25.33;6.17;;;9.60;98.90;;;9.59;63.70;96248.41;4999911;28;20494;-56
2022/11/12 05:17:01;;;;;;;29.53;6.80;;;9.60;98.90;;;9.61;63.75;96251.75;5000885;28;20462;-55
2022/11/12 05:19:28;;;;;;;11.47;6.93;;;9.60;98.80;;;9.65;63.56;96261.13;4994872;28;20482;-56
2022/11/12 05:22:08;;;;;;;18.10;6.97;;;9.60;98.70;;;9.67;63.42;96261.03;5001428;28;20871;-57
2022/11/12 05:24:38;;;;;;;18.47;5.90;;;9.60;98.60;;;9.69;63.38;96270.47;4999807;28;20953;-55
2022/11/12 05:27:09;;;;;;;16.13;8.50;;;9.70;98.60;;;9.71;63.18;96261.66;4995453;28;20458;-57
2022/11/12 05:29:36;;;;;;;12.27;8.13;;;9.70;98.40;;;9.68;63.28;96273.22;4998676;28;20473;-56
2022/11/12 05:32:04;;;;;;;25.57;9.70;;;9.70;98.40;;;9.61;62.92;96275.41;5001572;28;20512;-54
2022/11/12 05:34:31;;;;;;;28.43;7.20;;;9.70;98.30;;;9.55;63.00;96270.53;5003173;28;20481;-56
2022/11/12 05:36:58;;;;;;;9.67;5.50;;;9.60;98.20;;;9.49;63.49;96278.81;4993083;28;20830;-56
2022/11/12 05:39:26;;;;;;;13.27;6.77;;;9.50;98.30;;;9.43;63.61;96273.94;5005724;28;20535;-56
2022/11/12 05:41:54;;;;;;;8.30;5.80;;;9.50;98.90;;;9.41;64.06;96275.84;5004294;28;20468;-57
2022/11/12 05:44:22;;;;;;;10.40;6.07;;;9.40;98.80;;;9.43;64.02;96269.53;5000562;28;20478;-58
2022/11/12 05:46:49;;;;;;;6.17;5.63;;;9.40;99.00;;;9.56;64.11;96277.50;5008923;28;20450;-57
2022/11/12 05:49:16;;;;;;;7.33;6.60;;;9.50;99.20;;;9.75;63.94;96277.13;5008619;28;20592;-56
2022/11/12 05:51:44;;;;;;;10.53;6.47;;;9.60;99.20;;;9.87;63.90;96273.69;5008251;28;20457;-57
2022/11/12 05:54:11;;;;;;;8.43;6.13;;;9.80;99.00;;;9.96;63.24;96280.16;5008670;28;20474;-57
2022/11/12 05:56:38;;;;;;;10.43;6.00;;;9.90;98.70;;;10.00;63.11;96279.00;5008827;28;20449;-57
2022/11/12 05:59:08;;;;;;;15.97;6.70;;;9.90;98.60;;;10.06;63.29;96280.38;5007992;28;20539;-57
2022/11/12 06:01:42;;;;;;;27.40;7.13;;;10.00;98.00;;;10.07;63.00;96284.69;5002275;28;20461;-57
2022/11/12 06:04:11;;;;;;;16.37;6.20;;;10.00;98.00;;;10.10;62.93;96288.88;5008445;28;20565;-57
2022/11/12 06:06:38;;;;;;;18.00;6.20;;;10.00;97.90;;;10.12;63.08;96284.41;5004759;28;20535;-56
2022/11/12 06:09:06;;;;;;;25.67;6.73;;;10.10;98.00;;;10.12;63.08;96292.28;5001337;28;20560;-56
2022/11/12 06:11:33;;;;;;;13.23;6.30;;;10.10;98.00;;;10.13;63.28;96289.56;5004356;28;20516;-57
2022/11/12 06:14:00;;;;;;;13.90;8.30;;;10.10;97.90;;;10.11;62.97;96286.16;5005406;28;20544;-56
2022/11/12 06:16:30;;;;;;;16.20;7.93;;;10.10;97.80;;;10.10;63.18;96295.00;5006754;28;20464;-56
2022/11/12 06:18:57;;;;;;;9.10;7.30;;;10.10;97.90;;;10.12;62.92;96300.16;5000641;28;20895;-57
2022/11/12 06:21:26;;;;;;;17.80;7.53;;;10.10;97.80;;;10.19;63.08;96299.66;4999407;28;20470;-57
2022/11/12 06:23:55;;;;;;;10.70;9.17;;;10.20;97.90;;;10.57;63.14;96303.31;5000877;28;20463;-56
2022/11/12 06:26:22;;;;;;;11.63;8.70;;;10.50;98.20;;;11.25;62.55;96299.47;5005233;28;20464;-57
2022/11/12 06:28:50;;;;;;;9.67;7.67;;;11.00;98.20;;;12.10;61.37;96293.38;4997730;28;20569;-55
2022/11/12 06:31:17;;;;;;;8.87;7.30;;;11.80;97.50;;;13.00;59.26;96283.97;5006985;28;20454;-57
2022/11/12 06:33:46;;;;;;;15.63;7.70;;;12.70;96.50;;;13.88;56.68;96280.50;5000673;28;20501;-57
2022/11/12 06:36:15;;;;;;;7.77;5.53;;;13.50;94.60;;;14.74;55.93;96279.63;5000512;28;20849;-56
2022/11/12 06:38:42;;;;;;;9.23;7.10;;;14.40;93.70;;;15.50;53.32;96282.72;4993687;28;20524;-57
2022/11/12 06:41:10;;;;;;;6.97;5.23;;;15.20;91.30;;;16.23;52.67;96282.44;5004055;28;20469;-56
2022/11/12 06:43:38;;;;;;;6.63;5.50;;;16.00;90.60;;;16.96;51.66;96295.25;5002433;28;20458;-56
2022/11/12 06:46:07;;;;;;;9.60;6.40;;;16.70;89.00;;;17.61;47.42;96285.59;4997369;28;20453;-57
2022/11/12 06:48:34;;;;;;;12.83;6.80;;;17.40;78.00;;;17.83;47.98;96295.84;5000766;28;20469;-60
2022/11/12 06:51:10;;;;;;;5.50;5.00;;;17.60;79.90;;;17.54;46.59;96288.84;5006339;28;21004;-57
2022/11/12 06:53:37;;;;;;;9.63;5.90;;;17.50;74.90;;;17.02;47.15;96299.13;5003279;28;21082;-56
2022/11/12 06:56:05;;;;;;;8.43;5.43;;;17.10;73.80;;;16.44;46.46;96295.56;5003502;28;20461;-58
2022/11/12 06:58:33;;;;;;;12.27;5.40;;;16.50;71.30;;;15.97;49.02;96303.38;5000538;28;20464;-56
2022/11/12 07:01:08;;;;;;;6.97;5.40;;;16.10;75.60;;;16.02;49.05;96302.97;5000145;28;20482;-55
2022/11/12 07:03:36;;;;;;;5.23;4.27;;;16.00;76.90;;;16.56;49.26;96303.38;5003952;28;20464;-55
2022/11/12 07:06:09;;;;;;;4.70;4.30;;;16.30;77.90;;;17.29;48.67;96303.66;4999708;28;20577;-57
2022/11/12 07:08:37;;;;;;;5.40;3.97;;;16.80;78.50;;;17.95;48.11;96292.97;5001208;28;20985;-56
2022/11/12 07:11:05;;;;;;;8.60;4.63;;;17.50;77.10;;;18.49;44.18;96293.81;5001154;28;20557;-57
2022/11/12 07:13:32;;;;;;;5.43;4.80;;;17.90;68.70;;;18.49;46.12;96290.31;4996611;28;20517;-55
2022/11/12 07:15:59;;;;;;;12.50;4.90;;;18.10;71.70;;;18.20;45.44;96294.06;5006394;28;20520;-56
2022/11/12 07:18:27;;;;;;;5.33;4.27;;;18.00;70.40;;;17.80;46.71;96288.16;5007221;28;21155;-56
2022/11/12 07:20:59;;;;;;;5.03;4.63;;;17.70;71.80;;;17.46;44.73;96296.75;5003114;28;20477;-56
2022/11/12 07:23:27;;;;;;;9.07;4.47;;;17.40;67.90;;;17.02;46.95;96286.69;5004027;28;20492;-58
2022/11/12 07:25:59;;;;;;;6.07;4.67;;;17.00;71.50;;;16.67;47.60;96295.28;5009199;28;21003;-57
2022/11/12 07:28:27;;;;;;;8.63;4.83;;;16.60;72.30;;;16.37;47.64;96289.13;4998381;28;20434;-58
2022/11/12 07:30:58;;;;;;;5.37;4.87;;;16.30;72.20;;;16.10;48.49;96293.34;5007487;28;20470;-56
2022/11/12 07:33:26;;;;;;;6.30;4.73;;;16.00;73.50;;;15.91;48.60;96295.97;5007247;28;20497;-59
2022/11/12 07:36:00;;;;;;;5.50;4.70;;;15.80;73.80;;;15.72;48.06;96294.09;5007228;28;20481;-56
2022/11/12 07:38:29;;;;;;;5.87;5.30;;;15.60;72.90;;;15.47;48.14;96280.34;5005813;28;20516;-56
2022/11/12 07:41:01;;;;;;;4.67;4.27;;;15.40;72.90;;;15.23;49.38;96286.84;5004151;28;21055;-58
2022/11/12 07:43:29;;;;;;;5.70;5.03;;;15.10;74.60;;;15.08;49.19;96285.53;5001226;28;20982;-54
2022/11/12 07:45:59;;;;;;;5.90;5.30;;;15.00;74.50;;;14.95;50.13;96292.84;5007036;28;20485;-58
2022/11/12 07:48:26;;;;;;;5.27;4.33;;;14.80;76.00;;;14.85;50.14;96288.31;4995827;28;20453;-56
2022/11/12 07:50:59;;;;;;;4.80;4.30;;;14.70;75.90;;;14.74;50.04;96287.59;5003468;28;20482;-56
2022/11/12 07:53:28;;;;;;;6.90;5.83;;;14.60;76.30;;;14.65;50.51;96291.84;4995396;28;20541;-58
2022/11/12 07:55:55;;;;;;;6.77;5.57;;;14.50;76.80;;;14.51;50.37;96301.75;5000455;28;20477;-56
2022/11/12 07:58:23;;;;;;;4.57;4.13;;;14.40;76.00;;;14.31;50.00;96295.50;5001811;28;20489;-56
2022/11/12 08:00:50;;;;;;;8.87;4.90;;;14.20;75.80;;;14.15;50.47;96295.91;4996529;28;20486;-57
2022/11/12 08:03:18;;;;;;;5.10;4.60;;;14.10;76.30;;;14.01;49.82;96295.38;4997938;28;20457;-57
2022/11/12 08:05:45;;;;;;;5.43;4.93;;;13.90;75.50;;;13.86;50.47;96305.41;4999974;28;20556;-57
2022/11/12 08:08:12;;;;;;;8.73;5.43;;;13.80;76.80;;;13.72;50.84;96301.22;4992771;28;20474;-55
2022/11/12 08:10:41;;;;;;;6.50;5.70;;;13.60;76.90;;;13.57;51.42;96304.16;4998435;28;20559;-59
2022/11/12 08:13:08;;;;;;;5.70;5.10;;;13.50;78.10;;;13.47;51.67;96308.47;5003513;28;20947;-54
2022/11/12 08:15:35;;;;;;;3.83;3.53;;;13.40;78.50;;;13.39;51.78;96310.91;5006181;28;20473;-57
2022/11/12 08:18:03;;;;;;;9.50;4.50;;;13.30;79.10;;;13.32;51.81;96310.50;5006348;28;20990;-55
2022/11/12 08:20:30;;;;;;;3.97;3.67;;;13.20;79.00;;;13.30;52.23;96320.34;5004922;28;20474;-56
2022/11/12 08:23:00;;;;;;;7.47;4.70;;;13.20;79.20;;;13.26;52.30;96314.47;4999939;28;21144;-55
2022/11/12 08:25:27;;;;;;;7.40;4.40;;;13.10;80.10;;;13.25;51.88;96318.06;5002558;28;20599;-57
2022/11/12 08:27:58;;;;;;;7.70;4.90;;;13.10;79.60;;;13.21;52.35;96306.03;5001898;28;20908;-56
2022/11/12 08:30:25;;;;;;;8.97;4.20;;;13.10;80.20;;;13.19;52.21;96312.44;5002068;28;20543;-58
2022/11/12 08:32:58;;;;;;;10.80;3.40;;;13.10;80.40;;;13.14;51.35;96317.25;5002411;28;20498;-56
2022/11/12 08:35:26;;;;;;;5.67;4.13;;;13.00;78.80;;;13.01;51.39;96312.06;5001582;28;20493;-57
2022/11/12 08:37:57;;;;;;;4.57;4.17;;;12.90;78.70;;;12.89;51.46;96317.34;5000604;28;20493;-58
2022/11/12 08:40:25;;;;;;;4.27;3.70;;;12.80;78.60;;;12.78;51.68;96317.34;4998260;28;20651;-56
2022/11/12 08:42:59;;;;;;;5.20;3.90;;;12.70;78.60;;;12.64;51.39;96315.75;5000827;28;20836;-55
2022/11/12 08:45:26;;;;;;;4.27;3.87;;;12.60;78.40;;;12.52;51.94;96322.78;4998111;28;20557;-55
2022/11/12 08:47:54;;;;;;;4.73;3.23;;;12.50;79.10;;;12.45;52.57;96318.09;5000272;28;20453;-56
2022/11/12 08:50:21;;;;;;;3.67;3.37;;;12.40;80.60;;;12.42;53.42;96315.69;4996951;28;20479;-55
2022/11/12 08:52:48;;;;;;;11.97;4.50;;;12.30;83.00;;;12.37;52.65;96316.84;5000771;28;20501;-56
2022/11/12 08:55:16;;;;;;;5.97;3.60;;;12.30;81.10;;;12.33;52.86;96322.47;4997993;28;20585;-56
2022/11/12 08:57:43;;;;;;;4.30;3.90;;;12.30;81.20;;;12.30;52.72;96320.06;5001092;28;20472;-57
2022/11/12 09:00:14;;;;;;;6.80;4.17;;;12.20;81.10;;;12.29;52.06;96328.94;4996901;28;20470;-57
2022/11/12 09:02:41;;;;;;;4.63;3.80;;;12.20;80.40;;;12.28;52.39;96314.91;4998712;28;20814;-54
2022/11/12 09:05:09;;;;;;;11.93;4.57;;;12.20;81.10;;;12.30;52.75;96320.06;5007329;28;20485;-56
2022/11/12 09:07:36;;;;;;;8.37;3.80;;;12.20;80.90;;;12.32;52.65;96315.53;5008284;28;21008;-56
2022/11/12 09:10:05;;;;;;;4.40;3.27;;;12.20;81.10;;;12.35;52.17;96315.31;5007493;28;20470;-56
2022/11/12 09:12:32;;;;;;;3.97;3.67;;;12.20;80.30;;;12.38;52.40;96317.72;5008050;28;20473;-55
2022/11/12 09:14:59;;;;;;;5.37;3.80;;;12.30;80.70;;;12.40;52.00;96317.59;5009901;28;20477;-55
2022/11/12 09:17:29;;;;;;;11.03;3.73;;;12.30;79.90;;;12.39;52.52;96308.81;5009677;28;20457;-58
2022/11/12 09:19:57;;;;;;;3.17;2.97;;;12.30;80.30;;;12.40;51.53;96307.03;5005876;28;20458;-56
2022/11/12 09:22:24;;;;;;;5.63;3.70;;;12.30;79.50;;;12.34;51.79;96306.53;5009258;28;21072;-54
2022/11/12 09:24:51;;;;;;;3.70;3.20;;;12.30;79.50;;;12.29;51.90;96306.03;5009663;28;20998;-56
2022/11/12 09:27:19;;;;;;;3.00;2.80;;;12.20;79.50;;;12.26;51.60;96303.63;5009471;28;20975;-54
2022/11/12 09:29:46;;;;;;;4.00;3.60;;;12.20;79.50;;;12.18;51.82;96309.47;5009308;28;20539;-56
2022/11/12 09:32:13;;;;;;;5.00;3.30;;;12.10;78.90;;;12.11;51.70;96305.59;5009174;28;20460;-56
2022/11/12 09:34:42;;;;;;;3.60;3.30;;;12.00;79.00;;;12.05;52.25;96307.88;5008153;28;20501;-56
2022/11/12 09:37:09;;;;;;;3.97;3.67;;;12.00;79.80;;;12.02;52.35;96303.66;5009451;28;20456;-57
2022/11/12 09:39:37;;;;;;;9.40;4.33;;;11.90;80.40;;;12.00;52.39;96310.84;5006041;28;20461;-55
2022/11/12 09:42:07;;;;;;;5.20;4.70;;;11.90;80.90;;;11.97;52.99;96303.16;5009311;28;20460;-58
2022/11/12 09:44:35;;;;;;;4.97;4.13;;;11.90;81.30;;;11.91;52.99;96314.13;5009776;28;21060;-59
2022/11/12 09:47:06;;;;;;;4.47;3.97;;;11.90;81.40;;;11.83;53.11;96312.91;5009252;28;20512;-58
2022/11/12 09:49:36;;;;;;;4.87;3.70;;;11.80;81.70;;;11.79;53.29;96308.78;5008992;28;20492;-57
2022/11/12 09:52:10;;;;;;;6.80;4.20;;;11.80;82.20;;;11.78;53.45;96314.19;5008749;28;20453;-56
2022/11/12 09:54:37;;;;;;;11.63;3.97;;;11.70;82.50;;;11.76;53.51;96318.72;5009145;28;20496;-57
2022/11/12 09:57:09;;;;;;;3.83;3.33;;;11.70;82.40;;;11.74;53.24;96305.66;5008558;28;20450;-56
2022/11/12 09:59:36;;;;;;;4.17;3.37;;;11.70;82.60;;;11.74;53.51;96316.22;5004990;28;20472;-55
2022/11/12 10:02:16;;;;;;;6.13;3.20;;;11.70;82.70;;;11.74;53.07;96310.94;5008979;28;20454;-58
2022/11/12 10:05:09;;;;;;;4.93;3.17;;;11.70;82.50;;;11.74;53.60;96310.94;5008930;28;20511;-55
2022/11/12 10:07:52;;;;;;;3.83;3.20;;;11.70;82.80;;;11.78;53.57;96317.66;5008611;28;20499;-57
2022/11/12 10:10:24;;;;;;;6.53;3.73;;;11.70;83.10;;;11.85;53.71;96307.53;5003286;28;20484;-57
2022/11/12 10:13:06;;;;;;;2.93;2.73;;;11.80;83.20;;;11.93;53.17;96306.97;5006708;28;20590;-56
2022/11/12 10:18:42;;;;;;;8.73;3.73;;;11.90;82.90;;;12.00;53.60;96318.75;5006055;28;20480;-58
2022/11/12 10:21:16;;;;;;;4.20;3.67;;;11.90;83.40;;;12.03;52.98;96313.25;5002653;28;20468;-58
2022/11/12 10:23:46;;;;;;;3.97;3.50;;;11.90;82.80;;;12.03;53.49;96318.53;5008103;28;20899;-56
2022/11/12 10:26:17;;;;;;;7.53;3.90;;;12.00;83.20;;;12.04;55.37;96312.31;5008113;28;20465;-58
2022/11/12 10:28:47;;;;;;;12.23;5.37;;;12.00;85.80;;;12.06;54.73;96310.38;5009037;28;20827;-56
2022/11/12 10:31:15;;;;;;;4.87;3.87;;;12.00;86.20;;;12.05;54.21;96308.69;5003245;28;20461;-56
2022/11/12 10:33:43;;;;;;;4.67;3.87;;;12.00;85.30;;;12.07;54.21;96314.72;5006508;28;20496;-57
2022/11/12 10:36:26;;;;;;;9.00;4.30;;;12.00;84.90;;;12.05;53.78;96313.13;5007803;28;20477;-56
2022/11/12 10:38:55;;;;;;;3.20;2.90;;;12.00;84.00;;;12.00;54.14;96308.19;5006263;28;20445;-57
2022/11/12 10:41:25;;;;;;;3.50;3.20;;;11.90;84.50;;;11.94;54.35;96311.28;5008114;28;20882;-55
2022/11/12 10:43:59;;;;;;;3.93;3.57;;;11.90;85.20;;;11.92;54.67;96300.00;5001764;28;20461;-59